Time;durP1;ratioP1;P1;durP2;ratioP2;P2;SDS_P1;SDS_P2;PMS_P1;PMS_P2;Temp;Humidity;BMP_temperature;BMP_pressure;BME280_temperature;BME280_humidity;BME280_pressure;Samples;Min_cycle;Max_cycle;Signal;HPM_P1;HPM_P2
2022/05/16 00:00:14;;;;;;;16.33;7.43;;;12.40;99.90;;;;;;5062307;28;20422;-54
2022/05/16 00:02:40;;;;;;;12.93;6.95;;;12.40;99.90;;;;;;5080587;28;20055;-52
2022/05/16 00:05:08;;;;;;;18.48;7.13;;;12.40;99.90;;;;;;5051448;28;20514;-53
2022/05/16 00:07:34;;;;;;;15.02;7.65;;;12.30;99.90;;;;;;5053689;28;20520;-54
2022/05/16 00:10:00;;;;;;;12.43;6.40;;;12.30;99.90;;;;;;5080641;28;20359;-52
2022/05/16 00:12:26;;;;;;;13.05;6.15;;;12.30;99.90;;;;;;5073143;28;20048;-51
2022/05/16 00:14:51;;;;;;;11.73;6.03;;;12.30;99.90;;;;;;5081428;28;20372;-51
2022/05/16 00:17:17;;;;;;;17.02;6.90;;;12.30;99.90;;;;;;5080708;28;20073;-54
2022/05/16 00:19:43;;;;;;;10.98;6.53;;;12.30;99.90;;;;;;5062381;28;20055;-54
2022/05/16 00:22:10;;;;;;;12.23;6.82;;;12.30;99.90;;;;;;5081082;28;20094;-49
2022/05/16 00:24:42;;;;;;;11.82;7.28;;;12.30;99.90;;;;;;5080456;28;20059;-53
2022/05/16 00:27:09;;;;;;;11.03;6.53;;;12.30;99.90;;;;;;5063552;28;20101;-52
2022/05/16 00:29:35;;;;;;;13.30;6.72;;;12.30;99.90;;;;;;5064752;28;20312;-54
2022/05/16 00:32:01;;;;;;;10.88;6.20;;;12.30;99.90;;;;;;5084129;28;20558;-52
2022/05/16 00:34:27;;;;;;;11.35;6.30;;;12.30;99.90;;;;;;5063427;28;20055;-54
2022/05/16 00:36:52;;;;;;;10.35;6.40;;;12.30;99.90;;;;;;5080913;28;20091;-53
2022/05/16 00:39:20;;;;;;;13.13;6.82;;;12.30;99.90;;;;;;5062350;28;20590;-53
2022/05/16 00:41:47;;;;;;;11.55;6.22;;;12.30;99.90;;;;;;5062032;28;20119;-54
2022/05/16 00:44:13;;;;;;;12.48;6.28;;;12.30;99.90;;;;;;5079842;28;20106;-56
2022/05/16 00:46:38;;;;;;;14.07;6.65;;;12.30;99.90;;;;;;5080031;28;20277;-54
2022/05/16 00:49:11;;;;;;;13.70;6.43;;;12.30;99.90;;;;;;5080235;28;20510;-55
2022/05/16 00:52:38;;;;;;;12.60;6.13;;;12.40;99.90;;;;;;5045309;28;20522;-56
2022/05/16 00:55:10;;;;;;;13.80;6.55;;;12.50;99.90;;;;;;4942613;28;20069;-51
2022/05/16 00:57:44;;;;;;;12.32;6.07;;;12.50;99.90;;;;;;4942074;28;20204;-51
2022/05/16 01:00:31;;;;;;;12.45;6.40;;;12.60;99.90;;;;;;4958741;28;20089;-56
2022/05/16 01:05:45;;;;;;;13.77;6.25;;;12.60;99.90;;;;;;4957925;28;20457;-51
2022/05/16 01:08:17;;;;;;;12.90;6.05;;;12.60;99.90;;;;;;4958928;28;20043;-56
2022/05/16 01:10:43;;;;;;;12.48;6.80;;;12.60;99.90;;;;;;4958814;28;20140;-55
2022/05/16 01:13:10;;;;;;;14.38;6.57;;;12.50;99.90;;;;;;4941894;28;20059;-51
2022/05/16 01:15:45;;;;;;;10.02;5.97;;;12.50;99.90;;;;;;4940253;28;20059;-53
2022/05/16 01:18:15;;;;;;;11.35;6.32;;;12.50;99.90;;;;;;4961356;28;20465;-52
2022/05/16 01:21:01;;;;;;;10.00;6.00;;;12.50;99.90;;;;;;4962509;28;20425;-54
2022/05/16 01:23:30;;;;;;;11.75;5.78;;;12.50;99.90;;;;;;4961976;28;20161;-53
2022/05/16 01:25:58;;;;;;;10.70;6.55;;;12.50;99.90;;;;;;4945552;28;20094;-52
2022/05/16 01:28:24;;;;;;;9.85;6.00;;;12.50;99.90;;;;;;4967281;28;20121;-55
2022/05/16 01:30:52;;;;;;;9.90;5.95;;;12.50;99.90;;;;;;4969536;28;20208;-52
2022/05/16 01:33:20;;;;;;;10.05;6.15;;;12.50;99.90;;;;;;5065071;28;20095;-49
2022/05/16 01:35:46;;;;;;;12.85;5.75;;;12.50;99.90;;;;;;5064175;28;20102;-54
2022/05/16 01:38:19;;;;;;;12.48;5.68;;;12.50;99.90;;;;;;5084528;28;20056;-49
2022/05/16 01:40:52;;;;;;;16.02;7.55;;;12.50;99.90;;;;;;5067178;28;20128;-54
2022/05/16 01:43:21;;;;;;;12.27;6.13;;;12.60;99.90;;;;;;5081842;28;20130;-52
2022/05/16 01:45:48;;;;;;;9.85;6.60;;;12.50;99.90;;;;;;5085602;28;20059;-53
2022/05/16 01:48:18;;;;;;;10.50;5.88;;;12.50;99.90;;;;;;5085269;28;20139;-51
2022/05/16 01:50:46;;;;;;;9.27;6.10;;;12.50;99.90;;;;;;5084756;28;20048;-51
2022/05/16 01:53:13;;;;;;;10.00;5.93;;;12.50;99.90;;;;;;5066229;28;20056;-53
2022/05/16 01:55:39;;;;;;;10.40;5.70;;;12.50;99.90;;;;;;5083691;28;20151;-56
2022/05/16 01:58:07;;;;;;;12.23;6.43;;;12.50;99.90;;;;;;5065247;28;20048;-53
2022/05/16 02:00:33;;;;;;;12.45;6.22;;;12.50;99.90;;;;;;5084803;28;20137;-54
2022/05/16 02:03:00;;;;;;;10.85;6.07;;;12.50;99.90;;;;;;5082718;28;20131;-54
2022/05/16 02:05:26;;;;;;;11.60;6.38;;;12.40;99.90;;;;;;5082518;28;20044;-56
2022/05/16 02:07:52;;;;;;;10.82;5.88;;;12.40;99.90;;;;;;5064748;28;20070;-49
2022/05/16 02:10:21;;;;;;;11.35;6.38;;;12.40;99.90;;;;;;5068135;28;20154;-51
2022/05/16 02:12:47;;;;;;;15.73;7.10;;;12.40;99.90;;;;;;5083788;28;20059;-54
2022/05/16 02:15:16;;;;;;;11.10;6.80;;;12.40;99.90;;;;;;5082720;28;20407;-49
2022/05/16 02:17:42;;;;;;;11.77;6.78;;;12.40;99.90;;;;;;5083364;28;20459;-54
2022/05/16 02:20:08;;;;;;;9.30;5.57;;;12.30;99.90;;;;;;5064991;28;20056;-54
2022/05/16 02:25:24;;;;;;;9.82;5.93;;;12.30;99.90;;;;;;5082701;28;20067;-54
2022/05/16 02:27:51;;;;;;;10.75;6.00;;;12.30;99.90;;;;;;5083222;28;20380;-57
2022/05/16 02:30:17;;;;;;;9.32;6.30;;;12.20;99.90;;;;;;5069148;28;20056;-49
2022/05/16 02:32:43;;;;;;;10.45;5.80;;;12.20;99.90;;;;;;5084575;28;20613;-52
2022/05/16 02:35:09;;;;;;;11.57;6.15;;;12.20;99.90;;;;;;5045310;28;20106;-55
2022/05/16 02:37:36;;;;;;;15.07;6.30;;;12.20;99.90;;;;;;5064128;28;20053;-48
2022/05/16 02:40:02;;;;;;;15.23;6.38;;;12.10;99.90;;;;;;5061895;28;20550;-53
2022/05/16 02:42:27;;;;;;;12.07;6.32;;;12.10;99.90;;;;;;5062063;28;20068;-54
2022/05/16 02:44:53;;;;;;;10.43;5.72;;;12.10;99.90;;;;;;5063819;28;20195;-47
2022/05/16 02:47:21;;;;;;;12.18;7.43;;;12.10;99.90;;;;;;5061354;28;20392;-54
2022/05/16 02:49:48;;;;;;;11.20;6.15;;;12.10;99.90;;;;;;5063887;28;20155;-53
2022/05/16 02:52:14;;;;;;;13.38;5.75;;;12.00;99.90;;;;;;5064020;28;20078;-51
2022/05/16 02:54:39;;;;;;;9.35;6.20;;;12.00;99.90;;;;;;5063216;28;20057;-52
2022/05/16 02:57:07;;;;;;;12.02;6.25;;;11.90;99.90;;;;;;5065402;28;20513;-48
2022/05/16 02:59:34;;;;;;;12.57;6.03;;;11.90;99.90;;;;;;5063201;28;20131;-55
2022/05/16 03:02:05;;;;;;;12.10;6.28;;;11.90;99.90;;;;;;5061712;28;20280;-48
2022/05/16 03:04:31;;;;;;;10.32;5.68;;;11.90;99.90;;;;;;5062413;28;20044;-50
2022/05/16 03:06:58;;;;;;;10.75;5.63;;;11.80;99.90;;;;;;5060884;28;20060;-49
2022/05/16 03:09:26;;;;;;;12.25;6.38;;;11.80;99.90;;;;;;5060651;28;20466;-47
2022/05/16 03:11:53;;;;;;;11.55;6.30;;;11.80;99.90;;;;;;5061680;28;20135;-53
2022/05/16 03:14:19;;;;;;;11.88;6.43;;;11.80;99.90;;;;;;5061890;28;20059;-55
2022/05/16 03:16:46;;;;;;;12.07;6.07;;;11.80;99.90;;;;;;5062082;28;20101;-49
2022/05/16 03:19:12;;;;;;;12.82;6.20;;;11.70;99.90;;;;;;5061123;28;20056;-54
2022/05/16 03:21:38;;;;;;;11.30;6.45;;;11.70;99.90;;;;;;5060161;28;20127;-53
2022/05/16 03:24:06;;;;;;;11.52;5.72;;;11.70;99.90;;;;;;5063078;28;20113;-52
2022/05/16 03:26:31;;;;;;;13.55;7.88;;;11.70;99.90;;;;;;5061611;28;20053;-53
2022/05/16 03:28:57;;;;;;;7.40;5.68;;;11.70;99.90;;;;;;5062505;28;20524;-48
2022/05/16 03:31:23;;;;;;;11.60;6.32;;;11.70;99.90;;;;;;5062136;28;20048;-53
2022/05/16 03:33:49;;;;;;;9.07;5.35;;;11.70;99.90;;;;;;5062639;28;20044;-49
2022/05/16 03:36:15;;;;;;;10.65;6.50;;;11.70;99.90;;;;;;5073904;28;20093;-51
2022/05/16 03:41:42;;;;;;;9.07;5.63;;;11.70;99.90;;;;;;5005741;28;20058;-55
2022/05/16 03:44:08;;;;;;;15.60;6.57;;;11.70;99.90;;;;;;4987464;28;20515;-57
2022/05/16 03:46:34;;;;;;;12.88;5.70;;;11.70;99.90;;;;;;4982874;28;20707;-54
2022/05/16 03:48:59;;;;;;;9.50;4.97;;;11.70;99.90;;;;;;4998611;28;20053;-54
2022/05/16 03:51:25;;;;;;;13.65;5.80;;;11.60;99.90;;;;;;4998910;28;20045;-53
2022/05/16 03:53:51;;;;;;;9.43;5.65;;;11.70;99.90;;;;;;4999598;28;20579;-51
2022/05/16 03:56:20;;;;;;;10.95;4.93;;;11.70;99.90;;;;;;5019015;28;20057;-54
2022/05/16 03:58:46;;;;;;;9.90;5.88;;;11.70;99.90;;;;;;5005158;28;20054;-54
2022/05/16 04:01:13;;;;;;;10.20;6.05;;;11.80;99.90;;;;;;4999982;28;20136;-53
2022/05/16 04:03:39;;;;;;;9.75;5.65;;;11.80;99.90;;;;;;4995893;28;20110;-53
2022/05/16 04:06:06;;;;;;;12.07;5.57;;;11.80;99.90;;;;;;4999500;28;20058;-53
2022/05/16 04:08:32;;;;;;;9.35;4.85;;;11.80;99.90;;;;;;5000342;28;20097;-54
2022/05/16 04:10:59;;;;;;;14.70;4.70;;;11.80;99.90;;;;;;4999888;28;20060;-52
2022/05/16 04:13:26;;;;;;;9.60;5.50;;;11.90;99.90;;;;;;5008040;28;21204;-46
2022/05/16 04:15:52;;;;;;;7.05;4.82;;;11.90;99.90;;;;;;5037251;28;20060;-52
2022/05/16 04:18:19;;;;;;;9.38;5.55;;;12.00;99.90;;;;;;5063634;28;20055;-57
2022/05/16 04:20:45;;;;;;;12.35;6.07;;;12.00;99.90;;;;;;5062708;28;20158;-44
2022/05/16 04:23:10;;;;;;;8.73;4.65;;;12.00;99.90;;;;;;5079929;28;20131;-52
2022/05/16 04:25:39;;;;;;;9.35;5.32;;;12.20;99.90;;;;;;5062159;28;20087;-52
2022/05/16 04:28:09;;;;;;;9.23;4.57;;;12.30;99.90;;;;;;5063631;28;20441;-51
2022/05/16 04:30:37;;;;;;;7.53;4.38;;;12.90;99.90;;;;;;5081296;28;20486;-49
2022/05/16 04:33:03;;;;;;;8.57;4.47;;;13.90;99.90;;;;;;5081543;28;20054;-57
2022/05/16 04:35:29;;;;;;;10.38;4.70;;;14.90;99.90;;;;;;5058683;28;20567;-53
2022/05/16 04:37:55;;;;;;;10.98;3.95;;;15.40;99.90;;;;;;5061341;28;20052;-45
2022/05/16 04:40:21;;;;;;;12.32;5.18;;;15.60;99.90;;;;;;5059269;28;20052;-57
2022/05/16 04:42:48;;;;;;;7.68;4.03;;;15.50;99.90;;;;;;5060639;28;20051;-55
2022/05/16 04:45:25;;;;;;;8.57;4.43;;;15.70;99.90;;;;;;5058623;28;20056;-55
2022/05/16 04:47:55;;;;;;;9.35;4.10;;;15.90;99.90;;;;;;5059781;28;20478;-54
2022/05/16 04:50:29;;;;;;;6.50;4.03;;;15.90;99.90;;;;;;5058693;28;20114;-55
2022/05/16 04:52:55;;;;;;;8.65;4.82;;;16.00;99.90;;;;;;5060995;28;20111;-52
2022/05/16 04:55:22;;;;;;;7.47;4.57;;;15.90;99.90;;;;;;5059724;28;20052;-50
2022/05/16 04:57:49;;;;;;;8.52;4.28;;;16.10;99.90;;;;;;5051884;28;20048;-52
2022/05/16 05:00:17;;;;;;;9.95;4.35;;;16.60;99.90;;;;;;5060360;28;20052;-54
2022/05/16 05:02:44;;;;;;;16.52;5.50;;;17.20;99.90;;;;;;5059335;28;20059;-55
2022/05/16 05:05:11;;;;;;;10.27;5.70;;;17.20;99.90;;;;;;5059682;28;20102;-54
2022/05/16 05:07:37;;;;;;;7.90;4.50;;;17.00;99.90;;;;;;5061620;28;20048;-54
2022/05/16 05:15:36;;;;;;;11.70;4.32;;;16.40;99.90;;;;;;5058148;28;20052;-56
2022/05/16 05:18:03;;;;;;;10.57;4.20;;;16.00;99.90;;;;;;5060524;28;20394;-53
2022/05/16 05:20:29;;;;;;;10.18;4.47;;;15.80;99.90;;;;;;5060613;28;20123;-51
2022/05/16 05:22:56;;;;;;;9.65;4.43;;;16.20;99.90;;;;;;5064667;28;20105;-52
2022/05/16 05:25:22;;;;;;;9.82;4.88;;;17.30;99.90;;;;;;5062088;28;20078;-52
2022/05/16 05:27:48;;;;;;;8.75;4.38;;;18.50;99.90;;;;;;5060666;28;20037;-58
2022/05/16 05:30:19;;;;;;;9.82;3.95;;;19.90;99.90;;;;;;5059336;28;20131;-56
2022/05/16 05:32:47;;;;;;;7.43;3.70;;;21.00;99.90;;;;;;5047471;28;20049;-55
2022/05/16 05:35:14;;;;;;;8.38;4.05;;;21.70;99.80;;;;;;5060255;28;20037;-55
2022/05/16 05:37:39;;;;;;;7.80;3.88;;;21.90;98.30;;;;;;5061524;28;20142;-52
2022/05/16 05:40:06;;;;;;;9.90;3.88;;;21.60;98.00;;;;;;5080898;28;20058;-51
2022/05/16 05:42:33;;;;;;;9.35;3.90;;;22.20;98.00;;;;;;5062229;28;20153;-51
2022/05/16 05:44:59;;;;;;;10.70;4.45;;;22.80;96.50;;;;;;5061607;28;20504;-54
2022/05/16 05:47:25;;;;;;;7.57;3.83;;;23.60;95.60;;;;;;5080470;28;20137;-53
2022/05/16 05:49:51;;;;;;;7.40;4.03;;;24.00;94.70;;;;;;5061771;28;20048;-48
2022/05/16 05:52:17;;;;;;;7.88;4.03;;;24.40;93.60;;;;;;5081704;28;20457;-50
2022/05/16 05:54:44;;;;;;;7.90;4.20;;;24.70;92.50;;;;;;5087128;28;20052;-48
2022/05/16 05:57:09;;;;;;;8.70;4.10;;;24.80;91.70;;;;;;5080259;28;20059;-53
2022/05/16 05:59:38;;;;;;;6.38;4.05;;;25.10;91.00;;;;;;5060755;28;20043;-50
2022/05/16 06:02:06;;;;;;;9.73;4.72;;;25.60;91.00;;;;;;5080251;28;20055;-53
2022/05/16 06:04:32;;;;;;;7.72;3.90;;;26.00;89.40;;;;;;5084253;28;20080;-47
2022/05/16 06:06:58;;;;;;;6.13;4.50;;;25.80;88.40;;;;;;5063978;28;20075;-56
2022/05/16 06:09:24;;;;;;;7.68;4.18;;;25.90;88.30;;;;;;5065888;28;20140;-53
2022/05/16 06:11:49;;;;;;;8.52;4.00;;;26.10;87.10;;;;;;5084546;28;20109;-55
2022/05/16 06:14:16;;;;;;;7.35;4.07;;;26.30;85.90;;;;;;5065884;28;20040;-52
2022/05/16 06:16:42;;;;;;;9.18;4.38;;;26.40;84.70;;;;;;5064087;28;20506;-53
2022/05/16 06:19:08;;;;;;;10.98;4.80;;;26.40;85.10;;;;;;5065375;28;20123;-53
2022/05/16 06:21:35;;;;;;;10.10;5.07;;;26.80;84.80;;;;;;5084450;28;20098;-56
2022/05/16 06:24:03;;;;;;;7.78;4.20;;;27.50;83.90;;;;;;5082863;28;20589;-55
2022/05/16 06:26:32;;;;;;;7.20;4.68;;;28.00;82.60;;;;;;5064109;28;20042;-54
2022/05/16 06:28:57;;;;;;;7.68;3.88;;;28.00;80.10;;;;;;5083937;28;20048;-53
2022/05/16 06:31:24;;;;;;;10.38;5.22;;;28.00;80.70;;;;;;5084593;28;20564;-54
2022/05/16 06:33:49;;;;;;;8.75;4.28;;;27.00;80.00;;;;;;5066155;28;20157;-53
2022/05/16 06:36:16;;;;;;;9.40;4.35;;;26.00;80.90;;;;;;5065925;28;20143;-52
2022/05/16 06:38:42;;;;;;;8.55;4.35;;;24.90;82.80;;;;;;5069081;28;20405;-56
2022/05/16 06:41:08;;;;;;;7.05;3.78;;;23.90;83.60;;;;;;5065519;28;20035;-56
2022/05/16 06:43:34;;;;;;;8.55;4.30;;;23.10;85.30;;;;;;5084110;28;20054;-59
2022/05/16 06:46:02;;;;;;;10.98;4.32;;;23.30;86.30;;;;;;5083190;28;20320;-53
2022/05/16 06:48:29;;;;;;;9.18;3.83;;;24.40;86.00;;;;;;5064717;28;20056;-52
2022/05/16 06:50:55;;;;;;;9.30;4.45;;;25.60;84.40;;;;;;5083693;28;20126;-55
2022/05/16 06:53:28;;;;;;;12.70;4.75;;;26.10;83.20;;;;;;5083901;28;20079;-54
2022/05/16 06:55:54;;;;;;;7.65;4.18;;;26.50;82.10;;;;;;5083034;28;20051;-52
2022/05/16 06:58:20;;;;;;;11.18;4.43;;;26.90;81.00;;;;;;5053787;28;20044;-56
2022/05/16 07:00:47;;;;;;;7.03;3.58;;;27.20;81.10;;;;;;5081665;28;20054;-53
2022/05/16 07:03:13;;;;;;;11.13;4.43;;;27.70;80.10;;;;;;5083148;28;20044;-53
2022/05/16 07:05:40;;;;;;;10.52;4.90;;;27.60;78.60;;;;;;5081041;28;20627;-54
2022/05/16 07:08:06;;;;;;;9.32;4.15;;;27.50;77.70;;;;;;5077275;28;20076;-50
2022/05/16 07:10:32;;;;;;;11.65;3.97;;;27.00;79.00;;;;;;5065878;28;20056;-50
2022/05/16 07:13:04;;;;;;;9.57;3.97;;;26.80;81.10;;;;;;5081985;28;20490;-51
2022/05/16 07:15:29;;;;;;;7.90;3.63;;;26.50;80.70;;;;;;5078286;28;20465;-49
2022/05/16 07:17:55;;;;;;;11.95;4.53;;;25.70;81.80;;;;;;5082165;28;20154;-55
2022/05/16 07:20:21;;;;;;;8.60;4.10;;;25.50;81.60;;;;;;5082354;28;20040;-54
2022/05/16 07:22:48;;;;;;;9.13;4.25;;;25.10;82.30;;;;;;5074749;28;20571;-53
2022/05/16 07:25:22;;;;;;;10.80;4.28;;;25.00;83.00;;;;;;5059250;28;20437;-54
2022/05/16 07:27:56;;;;;;;8.25;3.47;;;24.80;83.60;;;;;;5081058;28;20062;-50
2022/05/16 07:30:28;;;;;;;9.80;3.95;;;25.00;84.70;;;;;;5082192;28;20044;-53
2022/05/16 07:32:55;;;;;;;10.15;4.25;;;24.90;84.20;;;;;;5038207;28;20052;-55
2022/05/16 07:35:26;;;;;;;9.13;4.25;;;24.60;82.60;;;;;;5081877;28;20074;-51
2022/05/16 07:37:53;;;;;;;9.95;3.90;;;24.70;83.20;;;;;;5082383;28;20560;-54
2022/05/16 07:40:21;;;;;;;8.05;4.18;;;24.70;83.40;;;;;;5081741;28;20050;-55
2022/05/16 07:42:48;;;;;;;7.43;3.80;;;24.60;83.90;;;;;;5062958;28;20080;-55
2022/05/16 07:45:13;;;;;;;8.93;4.05;;;24.50;84.00;;;;;;5047151;28;20064;-52
2022/05/16 07:47:41;;;;;;;8.32;3.70;;;24.50;83.90;;;;;;5063820;28;20138;-54
2022/05/16 07:50:07;;;;;;;7.35;3.90;;;24.40;84.50;;;;;;5081595;28;20399;-52
2022/05/16 07:52:34;;;;;;;9.77;3.58;;;24.50;84.70;;;;;;5083390;28;20048;-54
2022/05/16 07:55:00;;;;;;;9.10;4.78;;;24.60;84.70;;;;;;5080532;28;20051;-53
2022/05/16 07:57:26;;;;;;;8.82;4.57;;;24.60;84.50;;;;;;5076610;28;20051;-58
2022/05/16 07:59:59;;;;;;;9.18;3.85;;;24.50;84.60;;;;;;5066524;28;20047;-54
2022/05/16 08:02:25;;;;;;;13.65;4.93;;;24.40;87.90;;;;;;5085763;28;20048;-55
2022/05/16 08:04:51;;;;;;;8.55;4.13;;;24.50;87.60;;;;;;5072062;28;20048;-57
2022/05/16 08:07:17;;;;;;;10.10;4.30;;;24.60;87.40;;;;;;5077782;28;20569;-52
2022/05/16 08:12:32;;;;;;;8.10;3.92;;;24.60;84.80;;;;;;5082558;28;20185;-55
2022/05/16 08:15:00;;;;;;;11.73;4.22;;;24.80;85.80;;;;;;5079992;28;20056;-54
2022/05/16 08:17:27;;;;;;;10.00;4.15;;;24.80;87.50;;;;;;5082954;28;20056;-57
2022/05/16 08:19:52;;;;;;;10.15;4.43;;;24.70;85.70;;;;;;5082404;28;20056;-53
2022/05/16 08:22:18;;;;;;;7.95;4.03;;;24.60;85.00;;;;;;5080858;28;20052;-56
2022/05/16 08:24:47;;;;;;;7.25;3.78;;;24.40;85.90;;;;;;5080476;28;20059;-55
2022/05/16 08:27:13;;;;;;;8.20;3.80;;;24.30;86.10;;;;;;5080694;28;20040;-53
2022/05/16 08:29:38;;;;;;;10.77;4.18;;;24.10;89.30;;;;;;5081294;28;20431;-54
2022/05/16 08:32:05;;;;;;;8.85;4.07;;;24.10;89.80;;;;;;5080065;28;20090;-53
2022/05/16 08:34:31;;;;;;;11.32;3.83;;;24.10;88.70;;;;;;5081073;28;20153;-54
2022/05/16 08:40:03;;;;;;;11.75;3.78;;;24.00;87.80;;;;;;5080755;28;20056;-55
2022/05/16 08:42:41;;;;;;;10.82;4.25;;;24.00;88.20;;;;;;5080896;28;20044;-55
2022/05/16 08:45:31;;;;;;;11.35;4.45;;;24.00;90.30;;;;;;5080754;28;20047;-55
2022/05/16 08:48:40;;;;;;;9.77;4.53;;;24.10;90.20;;;;;;5082618;28;20044;-55
2022/05/16 08:51:17;;;;;;;8.40;4.32;;;24.30;89.60;;;;;;5081622;28;20182;-53
2022/05/16 08:53:52;;;;;;;9.35;3.92;;;24.40;90.10;;;;;;5065709;28;20113;-50
2022/05/16 08:56:28;;;;;;;10.27;4.35;;;24.80;90.80;;;;;;5080540;28;20522;-55
2022/05/16 08:59:05;;;;;;;8.57;4.30;;;25.10;90.80;;;;;;5079909;28;20051;-54
2022/05/16 09:01:49;;;;;;;14.88;4.50;;;25.40;88.80;;;;;;5082239;28;20048;-55
2022/05/16 09:04:53;;;;;;;9.77;3.97;;;25.50;88.20;;;;;;5081243;28;20098;-55
2022/05/16 09:07:37;;;;;;;11.27;5.05;;;25.80;89.20;;;;;;5042483;28;20940;-57
2022/05/16 09:10:17;;;;;;;11.55;4.45;;;25.70;89.10;;;;;;5058199;28;20060;-57
2022/05/16 09:12:50;;;;;;;9.73;4.30;;;25.80;89.80;;;;;;5057621;28;20094;-55
2022/05/16 09:15:23;;;;;;;10.90;4.13;;;25.70;88.80;;;;;;5044755;28;20159;-57
2022/05/16 09:17:51;;;;;;;9.45;4.28;;;25.70;87.30;;;;;;5038933;28;20478;-57
2022/05/16 09:20:53;;;;;;;9.43;4.32;;;25.70;89.60;;;;;;5038954;28;20052;-56
2022/05/16 09:23:32;;;;;;;9.55;4.10;;;25.90;87.10;;;;;;4995314;28;20756;-55
2022/05/16 09:26:13;;;;;;;10.15;4.53;;;25.80;90.60;;;;;;5001878;28;20141;-55
2022/05/16 09:28:50;;;;;;;10.50;4.68;;;25.80;89.50;;;;;;4992002;28;20058;-55
2022/05/16 09:31:30;;;;;;;12.70;5.15;;;25.80;89.30;;;;;;4990215;28;20451;-58
2022/05/16 09:33:58;;;;;;;13.93;4.57;;;25.70;88.50;;;;;;4997015;28;20168;-57
2022/05/16 09:36:33;;;;;;;12.40;5.00;;;25.70;87.60;;;;;;4981645;28;20148;-56
2022/05/16 09:39:00;;;;;;;9.10;5.10;;;25.80;87.20;;;;;;5002124;28;20054;-56
2022/05/16 09:41:35;;;;;;;10.15;4.93;;;25.70;86.60;;;;;;4986171;28;20081;-56
2022/05/16 09:44:25;;;;;;;10.60;4.85;;;25.70;89.50;;;;;;5039639;28;20092;-55
2022/05/16 09:47:29;;;;;;;10.93;4.63;;;25.70;87.20;;;;;;5008904;28;20478;-57
2022/05/16 09:50:21;;;;;;;8.93;4.60;;;25.90;87.80;;;;;;5034109;28;20493;-58
2022/05/16 09:53:14;;;;;;;12.88;4.55;;;25.90;90.40;;;;;;5024979;28;20153;-54
2022/05/16 09:55:54;;;;;;;;;;;26.00;87.70;;;;;;4982631;28;20101;-57
2022/05/16 09:58:52;;;;;;;11.27;4.47;;;26.00;86.80;;;;;;4986154;28;19987;-52
2022/05/16 10:01:35;;;;;;;13.15;4.95;;;26.00;87.00;;;;;;5044375;28;20147;-57
2022/05/16 10:04:19;;;;;;;9.75;4.60;;;26.00;90.70;;;;;;5061309;28;20079;-52
2022/05/16 10:07:01;;;;;;;9.65;4.78;;;26.00;88.80;;;;;;5059943;28;20347;-56
2022/05/16 10:09:55;;;;;;;10.43;4.22;;;26.10;87.90;;;;;;5061905;28;20431;-53
2022/05/16 10:12:25;;;;;;;15.45;5.22;;;25.90;88.60;;;;;;5045453;28;20060;-56
2022/05/16 10:14:51;;;;;;;10.48;5.03;;;25.50;87.60;;;;;;5044457;28;20699;-58
2022/05/16 10:17:31;;;;;;;9.23;5.35;;;25.30;89.20;;;;;;5061411;28;20048;-56
2022/05/16 10:20:15;;;;;;;12.77;5.30;;;25.10;89.90;;;;;;5061263;28;20522;-52
2022/05/16 10:22:41;;;;;;;9.95;5.00;;;24.90;89.90;;;;;;5056478;28;20067;-57
2022/05/16 10:25:13;;;;;;;15.68;5.10;;;24.80;90.30;;;;;;5069650;28;20051;-56
2022/05/16 10:27:42;;;;;;;13.23;4.38;;;24.50;90.10;;;;;;5079106;28;20052;-56
2022/05/16 10:30:20;;;;;;;9.52;4.50;;;24.40;90.30;;;;;;5060850;28;20044;-57
2022/05/16 10:35:45;;;;;;;9.65;4.70;;;24.00;90.80;;;;;;5084356;28;20096;-50
2022/05/16 10:38:43;;;;;;;13.77;5.82;;;24.00;91.60;;;;;;5083485;28;20115;-44
2022/05/16 10:41:18;;;;;;;11.75;5.30;;;23.90;91.60;;;;;;5059842;28;20059;-57
2022/05/16 10:44:09;;;;;;;10.45;4.75;;;24.00;92.00;;;;;;5059726;28;20195;-56
2022/05/16 10:46:39;;;;;;;13.63;5.13;;;24.10;91.80;;;;;;5069459;28;20174;-58
2022/05/16 10:49:11;;;;;;;11.70;4.70;;;24.10;91.60;;;;;;5060792;28;20111;-55
2022/05/16 10:51:47;;;;;;;12.68;4.57;;;24.20;92.00;;;;;;5044976;28;20140;-56
2022/05/16 10:54:24;;;;;;;11.90;5.35;;;24.40;92.20;;;;;;5071990;28;20075;-48
2022/05/16 10:57:06;;;;;;;13.27;5.18;;;24.70;93.20;;;;;;5044004;28;20190;-57
2022/05/16 10:59:36;;;;;;;;;;;24.90;93.00;;;;;;5036308;28;20094;-48
2022/05/16 11:02:41;;;;;;;12.40;5.28;;;25.20;92.90;;;;;;5060293;28;19931;-56
2022/05/16 11:05:12;;;;;;;9.13;5.03;;;25.40;91.50;;;;;;5050384;28;20649;-56
2022/05/16 11:08:00;;;;;;;13.60;6.32;;;25.30;91.40;;;;;;5054210;28;20103;-56
2022/05/16 11:11:02;;;;;;;11.63;6.10;;;25.10;91.40;;;;;;5052108;28;20142;-57
2022/05/16 11:13:50;;;;;;;10.10;6.43;;;25.00;91.40;;;;;;4980517;28;20062;-54
2022/05/16 11:16:26;;;;;;;15.13;7.18;;;25.00;92.80;;;;;;4978540;28;20172;-53
2022/05/16 11:19:30;;;;;;;11.98;6.43;;;25.00;91.80;;;;;;4969648;28;20632;-54
2022/05/16 11:22:05;;;;;;;11.20;6.15;;;24.80;92.30;;;;;;4980716;28;20362;-58
2022/05/16 11:24:46;;;;;;;13.27;5.78;;;24.80;92.60;;;;;;4980233;28;20177;-57
2022/05/16 11:27:45;;;;;;;9.30;5.43;;;24.80;91.90;;;;;;4964437;28;20156;-57
2022/05/16 11:30:18;;;;;;;10.40;5.95;;;24.80;92.50;;;;;;4964239;28;20101;-57
2022/05/16 11:33:14;;;;;;;10.93;6.47;;;24.70;91.90;;;;;;4963073;28;20064;-56
2022/05/16 11:35:53;;;;;;;11.60;6.32;;;24.70;92.70;;;;;;4982178;28;20615;-56
2022/05/16 11:38:43;;;;;;;11.65;6.47;;;24.60;92.20;;;;;;5000381;28;20084;-58
2022/05/16 11:41:40;;;;;;;10.88;6.18;;;24.30;91.70;;;;;;4983124;28;20646;-55
2022/05/16 11:44:40;;;;;;;8.63;6.85;;;24.40;92.20;;;;;;4941419;29;20051;-49
2022/05/16 11:47:20;;;;;;;12.57;6.93;;;24.50;93.10;;;;;;4903518;29;20404;-52
2022/05/16 11:50:01;;;;;;;13.02;6.97;;;24.40;92.60;;;;;;4887525;29;20517;-56
2022/05/16 11:52:52;;;;;;;10.50;7.07;;;24.40;93.10;;;;;;4866669;29;20053;-56
2022/05/16 12:00:59;;;;;;;11.88;7.18;;;24.80;93.30;;;;;;4865895;29;20136;-54
2022/05/16 12:03:40;;;;;;;16.40;7.70;;;25.00;93.00;;;;;;4866377;29;20169;-58
2022/05/16 12:06:33;;;;;;;10.65;6.88;;;25.20;92.60;;;;;;4887456;29;20563;-56
2022/05/16 12:09:50;;;;;;;7.85;6.50;;;25.00;92.40;;;;;;4887493;29;20072;-56
2022/05/16 12:12:37;;;;;;;11.23;6.72;;;24.80;92.40;;;;;;4894210;29;20066;-57
2022/05/16 12:15:22;;;;;;;13.52;7.32;;;24.80;92.70;;;;;;4886078;29;20061;-57
2022/05/16 12:18:00;;;;;;;15.98;8.05;;;24.70;92.70;;;;;;4871732;29;20886;-56
2022/05/16 12:20:44;;;;;;;15.15;6.85;;;24.60;93.00;;;;;;4899850;29;20051;-56
2022/05/16 12:23:52;;;;;;;10.13;6.97;;;24.70;93.60;;;;;;4924412;28;20534;-50
2022/05/16 12:26:44;;;;;;;11.95;6.80;;;24.70;93.20;;;;;;4974650;28;20137;-53
2022/05/16 12:29:10;;;;;;;15.03;7.40;;;24.80;94.30;;;;;;4939580;28;20063;-50
2022/05/16 12:31:44;;;;;;;12.77;6.40;;;25.00;93.30;;;;;;4952081;28;20055;-52
2022/05/16 12:34:11;;;;;;;19.40;8.00;;;25.40;94.10;;;;;;4936589;28;20499;-58
2022/05/16 12:36:38;;;;;;;12.05;7.10;;;25.70;93.10;;;;;;4949512;28;20245;-58
2022/05/16 12:39:25;;;;;;;11.82;7.13;;;25.90;93.50;;;;;;4957419;28;20058;-56
2022/05/16 12:42:28;;;;;;;11.38;7.20;;;26.00;93.10;;;;;;4952127;28;20042;-58
2022/05/16 12:44:54;;;;;;;10.88;7.97;;;26.00;92.80;;;;;;4956649;28;20039;-56
2022/05/16 12:47:38;;;;;;;12.57;7.70;;;26.00;92.90;;;;;;4999707;28;20191;-57
2022/05/16 12:50:23;;;;;;;12.95;7.78;;;26.10;92.60;;;;;;4992316;28;20058;-57
2022/05/16 12:53:27;;;;;;;12.07;8.02;;;25.90;92.10;;;;;;4999920;28;20626;-58
2022/05/16 12:56:38;;;;;;;12.93;9.70;;;26.00;92.80;;;;;;4995459;28;20049;-58
2022/05/16 12:59:15;;;;;;;15.68;12.98;;;26.10;93.00;;;;;;4945776;28;20066;-56
2022/05/16 13:02:13;;;;;;;19.05;13.40;;;26.30;93.00;;;;;;4962436;28;20090;-57
2022/05/16 13:05:00;;;;;;;17.25;13.13;;;26.50;93.10;;;;;;4951141;28;20062;-57
2022/05/16 13:07:37;;;;;;;16.77;13.50;;;26.50;92.80;;;;;;4924614;29;20060;-56
2022/05/16 13:10:09;;;;;;;18.73;13.10;;;26.50;92.50;;;;;;4923358;29;20102;-47
2022/05/16 13:12:56;;;;;;;18.67;14.43;;;26.50;93.00;;;;;;4912111;29;20111;-57
2022/05/16 13:15:46;;;;;;;22.75;14.07;;;26.40;92.20;;;;;;4932652;29;20056;-58
2022/05/16 13:18:24;;;;;;;17.80;12.98;;;26.20;93.00;;;;;;4932111;29;20099;-56
2022/05/16 13:20:54;;;;;;;19.42;14.23;;;26.30;93.40;;;;;;4930864;29;20067;-58
2022/05/16 13:23:20;;;;;;;16.65;13.82;;;26.30;93.10;;;;;;4931251;29;20075;-56
2022/05/16 13:31:44;;;;;;;18.10;14.30;;;26.30;92.90;;;;;;4927206;29;20127;-58
2022/05/16 13:34:12;;;;;;;18.25;14.32;;;26.40;93.20;;;;;;4968156;28;20120;-57
2022/05/16 13:36:44;;;;;;;18.40;13.82;;;26.50;92.80;;;;;;4985793;28;20058;-57
2022/05/16 13:39:14;;;;;;;14.90;12.30;;;26.60;93.50;;;;;;4970270;28;20058;-56
2022/05/16 13:41:40;;;;;;;15.43;12.15;;;26.60;93.20;;;;;;5016563;28;20150;-59